createdAt,value
2019-05-29T00:01:22.517Z,14.80
2019-05-29T00:03:51.617Z,14.80
2019-05-29T00:06:20.583Z,14.70
2019-05-29T00:08:49.524Z,14.60
2019-05-29T00:11:18.435Z,14.60
2019-05-29T00:13:47.544Z,14.60
2019-05-29T00:16:16.716Z,14.60
2019-05-29T00:18:45.593Z,14.50
2019-05-29T00:21:14.783Z,14.40
2019-05-29T00:23:43.866Z,14.30
2019-05-29T00:26:12.819Z,14.30
2019-05-29T00:28:41.725Z,14.30
2019-05-29T00:31:12.199Z,14.30
2019-05-29T00:33:41.269Z,14.30
2019-05-29T00:36:10.360Z,14.20
2019-05-29T00:38:39.434Z,14.30
2019-05-29T00:41:08.825Z,14.30
2019-05-29T00:43:37.955Z,14.30
2019-05-29T00:46:07.279Z,14.30
2019-05-29T00:48:36.471Z,14.30
2019-05-29T00:51:05.481Z,14.40
2019-05-29T00:53:34.505Z,14.40
2019-05-29T00:56:03.419Z,14.30
2019-05-29T00:58:32.615Z,14.30
2019-05-29T01:01:01.638Z,14.40
2019-05-29T01:03:30.562Z,14.30
2019-05-29T01:05:59.494Z,14.20
2019-05-29T01:08:28.751Z,14.10
2019-05-29T01:10:57.732Z,14.10
2019-05-29T01:13:29.055Z,14.10
2019-05-29T01:15:57.992Z,14.10
2019-05-29T01:18:26.824Z,14.10
2019-05-29T01:20:56.098Z,14.10
2019-05-29T01:23:24.913Z,14.00
2019-05-29T01:25:53.963Z,14.00
2019-05-29T01:28:23.224Z,14.00
2019-05-29T01:30:52.474Z,13.90
2019-05-29T01:33:23.719Z,13.80
2019-05-29T01:35:52.982Z,13.80
2019-05-29T01:38:23.396Z,13.70
2019-05-29T01:40:52.762Z,13.70
2019-05-29T01:43:21.743Z,13.70
2019-05-29T01:45:50.744Z,13.70
2019-05-29T01:48:19.672Z,13.70
2019-05-29T01:50:48.508Z,13.70
2019-05-29T01:53:17.658Z,13.80
2019-05-29T01:55:46.636Z,13.80
2019-05-29T01:58:15.711Z,13.80
2019-05-29T02:00:45.209Z,13.80
2019-05-29T02:03:14.271Z,13.80
2019-05-29T02:05:43.624Z,13.80
2019-05-29T02:08:12.492Z,13.80
2019-05-29T02:10:41.330Z,13.90
2019-05-29T02:13:10.248Z,13.90
2019-05-29T02:15:39.241Z,13.90
2019-05-29T02:18:08.235Z,13.80
2019-05-29T02:20:37.065Z,13.80
2019-05-29T02:23:06.324Z,13.70
2019-05-29T02:25:35.245Z,13.60
2019-05-29T02:28:04.176Z,13.60
2019-05-29T02:30:33.342Z,13.50
2019-05-29T02:33:02.355Z,13.50
2019-05-29T02:35:31.236Z,13.50
2019-05-29T02:38:00.095Z,13.40
2019-05-29T02:40:30.113Z,13.40
2019-05-29T02:42:59.345Z,13.30
2019-05-29T02:45:50.757Z,13.30
2019-05-29T02:47:59.250Z,13.30
2019-05-29T02:50:29.354Z,13.30
2019-05-29T02:52:58.915Z,13.30
2019-05-29T02:55:28.887Z,13.30
2019-05-29T02:57:58.150Z,13.20
2019-05-29T03:00:55.213Z,13.20
2019-05-29T03:03:26.638Z,13.10
2019-05-29T03:05:56.613Z,13.10
2019-05-29T03:08:27.268Z,13.10
2019-05-29T03:10:56.302Z,13.00
2019-05-29T03:13:25.656Z,13.00
2019-05-29T03:16:09.889Z,13.00
2019-05-29T03:18:28.147Z,13.00
2019-05-29T03:20:57.209Z,13.00
2019-05-29T03:23:26.668Z,13.10
2019-05-29T03:25:56.214Z,13.10
2019-05-29T03:28:25.703Z,13.20
2019-05-29T03:30:54.965Z,13.20
2019-05-29T03:33:24.942Z,13.10
2019-05-29T03:35:54.819Z,13.00
2019-05-29T03:38:23.701Z,13.10
2019-05-29T03:40:52.922Z,13.10
2019-05-29T03:43:22.093Z,13.10
2019-05-29T03:45:51.240Z,13.10
2019-05-29T03:48:20.254Z,13.10
2019-05-29T03:50:49.423Z,13.10
2019-05-29T03:53:18.393Z,13.10
2019-05-29T03:55:47.690Z,13.00
2019-05-29T03:58:16.702Z,12.90
2019-05-29T04:00:48.221Z,12.90
2019-05-29T04:03:16.557Z,12.90
2019-05-29T04:05:45.712Z,13.00
2019-05-29T04:08:14.781Z,13.00
2019-05-29T04:10:43.836Z,13.10
2019-05-29T04:13:12.920Z,13.20
2019-05-29T04:15:42.715Z,13.20
2019-05-29T04:18:11.735Z,13.30
2019-05-29T04:20:41.175Z,13.30
2019-05-29T04:23:10.218Z,13.40
2019-05-29T04:25:42.659Z,13.40
2019-05-29T04:28:09.972Z,13.50
2019-05-29T04:30:39.455Z,13.60
2019-05-29T04:33:08.718Z,13.60
2019-05-29T04:35:39.596Z,13.70
2019-05-29T04:38:08.295Z,13.80
2019-05-29T04:40:37.972Z,13.80
2019-05-29T04:43:08.309Z,13.90
2019-05-29T04:45:39.245Z,13.90
2019-05-29T04:48:07.880Z,14.00
2019-05-29T04:50:38.664Z,14.00
2019-05-29T04:53:07.566Z,14.10
2019-05-29T04:55:36.984Z,14.20
2019-05-29T04:58:06.241Z,14.20
2019-05-29T05:00:35.336Z,14.30
2019-05-29T05:03:04.403Z,14.40
2019-05-29T05:05:33.715Z,14.40
2019-05-29T05:08:03.001Z,14.50
2019-05-29T05:10:37.781Z,14.60
2019-05-29T05:13:08.095Z,14.60
2019-05-29T05:15:38.011Z,14.70
2019-05-29T05:18:08.045Z,14.80
2019-05-29T05:20:38.302Z,15.00
2019-05-29T05:23:07.720Z,15.30
2019-05-29T05:25:36.856Z,15.60
2019-05-29T05:28:05.989Z,15.60
2019-05-29T05:30:35.058Z,15.70
2019-05-29T05:33:04.213Z,15.90
2019-05-29T05:35:33.235Z,15.90
2019-05-29T05:38:02.415Z,15.70
2019-05-29T05:40:32.641Z,15.60
2019-05-29T05:43:02.182Z,15.60
2019-05-29T05:45:31.433Z,15.60
2019-05-29T05:48:00.577Z,15.70
2019-05-29T05:50:29.715Z,15.80
2019-05-29T05:52:58.614Z,15.80
2019-05-29T05:55:27.573Z,15.90
2019-05-29T05:57:56.606Z,16.00
2019-05-29T06:00:35.689Z,16.10
2019-05-29T06:03:04.947Z,16.70
2019-05-29T06:05:34.263Z,18.10
2019-05-29T06:08:03.190Z,18.10
2019-05-29T06:10:32.172Z,17.90
2019-05-29T06:13:01.634Z,17.50
2019-05-29T06:15:30.792Z,17.20
2019-05-29T06:18:19.509Z,17.10
2019-05-29T06:20:30.886Z,16.90
2019-05-29T06:22:59.777Z,16.80
2019-05-29T06:25:28.991Z,16.70
2019-05-29T06:27:58.347Z,16.60
2019-05-29T06:30:27.469Z,16.60
2019-05-29T06:32:56.603Z,16.70
2019-05-29T06:35:25.550Z,16.70
2019-05-29T06:37:54.823Z,16.90
2019-05-29T06:40:37.768Z,17.10
2019-05-29T06:43:11.776Z,17.10
2019-05-29T06:45:39.995Z,17.00
2019-05-29T06:48:09.440Z,16.80
2019-05-29T06:50:39.385Z,16.80
2019-05-29T06:53:09.254Z,16.80
2019-05-29T06:55:39.748Z,16.70
2019-05-29T06:58:12.036Z,16.70
2019-05-29T07:00:41.188Z,16.70
2019-05-29T07:03:10.744Z,16.50
2019-05-29T07:05:39.904Z,16.50
2019-05-29T07:08:19.019Z,16.60
2019-05-29T07:10:40.392Z,16.60
2019-05-29T07:13:09.959Z,16.80
2019-05-29T07:15:39.009Z,17.10
2019-05-29T07:18:07.950Z,17.10
2019-05-29T07:20:37.118Z,17.20
2019-05-29T07:23:06.180Z,17.70
2019-05-29T07:25:35.142Z,19.40
2019-05-29T07:28:04.299Z,20.50
2019-05-29T07:30:33.530Z,20.30
2019-05-29T07:33:04.545Z,19.80
2019-05-29T07:35:33.595Z,19.20
2019-05-29T07:38:02.539Z,18.60
2019-05-29T07:40:35.598Z,18.30
2019-05-29T07:43:02.414Z,18.10
2019-05-29T07:45:31.643Z,18.00
2019-05-29T07:48:00.726Z,17.90
2019-05-29T07:50:29.916Z,18.00
2019-05-29T07:52:59.285Z,18.80
2019-05-29T07:55:29.197Z,19.90
2019-05-29T07:57:59.034Z,20.90
2019-05-29T08:00:35.533Z,22.00
2019-05-29T08:02:59.378Z,22.80
2019-05-29T08:05:28.826Z,23.10
2019-05-29T08:07:58.202Z,22.70
2019-05-29T08:10:28.644Z,22.20
2019-05-29T08:12:57.897Z,24.30
2019-05-29T08:15:27.042Z,28.20
2019-05-29T08:17:55.976Z,32.10
2019-05-29T08:20:25.011Z,35.20
2019-05-29T08:22:54.077Z,37.40
2019-05-29T08:25:23.192Z,38.90
2019-05-29T08:27:52.186Z,40.30
2019-05-29T08:30:21.828Z,41.50
2019-05-29T08:32:51.395Z,41.70
2019-05-29T08:35:20.584Z,40.70
2019-05-29T08:37:52.627Z,40.40
2019-05-29T08:40:21.756Z,40.30
2019-05-29T08:42:51.453Z,40.50
2019-05-29T08:45:20.904Z,40.60
2019-05-29T08:47:49.830Z,40.60
2019-05-29T08:50:19.504Z,40.70
2019-05-29T08:52:48.574Z,40.70
2019-05-29T08:55:17.585Z,40.70
2019-05-29T08:57:46.435Z,40.60
2019-05-29T09:00:18.715Z,39.60
2019-05-29T09:02:49.193Z,38.50
2019-05-29T09:05:18.435Z,36.00
2019-05-29T09:07:48.372Z,32.90
2019-05-29T09:10:18.152Z,29.50
2019-05-29T09:12:56.906Z,26.70
2019-05-29T09:15:21.306Z,25.20
2019-05-29T09:17:48.601Z,24.20
2019-05-29T09:20:32.042Z,23.70
2019-05-29T09:22:48.341Z,23.30
2019-05-29T09:25:17.513Z,22.60
2019-05-29T09:27:47.808Z,22.40
2019-05-29T09:30:18.329Z,22.20
2019-05-29T09:32:51.654Z,22.10
2019-05-29T09:35:20.160Z,22.00
2019-05-29T09:37:49.230Z,21.80
2019-05-29T09:40:20.805Z,21.60
2019-05-29T09:42:50.310Z,21.50
2019-05-29T09:45:19.778Z,21.40
2019-05-29T09:47:48.686Z,21.30
2019-05-29T09:50:18.686Z,21.20
2019-05-29T09:52:48.764Z,21.00
2019-05-29T09:55:18.035Z,20.90
2019-05-29T09:57:46.972Z,20.80
2019-05-29T10:00:16.100Z,20.80
2019-05-29T10:02:45.113Z,21.00
2019-05-29T10:05:14.190Z,21.10
2019-05-29T10:07:43.102Z,21.10
2019-05-29T10:10:12.679Z,21.00
2019-05-29T10:12:41.585Z,20.90
2019-05-29T10:15:13.694Z,20.60
2019-05-29T10:17:42.847Z,20.60
2019-05-29T10:20:13.640Z,20.80
2019-05-29T10:22:42.568Z,20.80
2019-05-29T10:25:12.272Z,20.80
2019-05-29T10:27:41.618Z,20.80
2019-05-29T10:30:13.923Z,20.90
2019-05-29T10:32:44.397Z,21.00
2019-05-29T10:35:14.034Z,21.00
2019-05-29T10:37:44.451Z,20.90
2019-05-29T10:40:13.892Z,20.90
2019-05-29T10:42:43.132Z,20.90
2019-05-29T10:45:13.149Z,21.10
2019-05-29T10:47:43.234Z,21.30
2019-05-29T10:50:12.578Z,21.40
2019-05-29T10:52:41.657Z,21.40
2019-05-29T10:55:11.105Z,21.40
2019-05-29T10:57:40.936Z,21.60
2019-05-29T11:00:10.132Z,21.70
2019-05-29T11:02:39.059Z,21.70
2019-05-29T11:05:08.674Z,21.80
2019-05-29T11:07:37.568Z,21.80
2019-05-29T11:10:07.685Z,22.00
2019-05-29T11:12:39.340Z,22.20
2019-05-29T11:15:20.716Z,22.30
2019-05-29T11:17:38.869Z,22.30
2019-05-29T11:20:08.628Z,22.30
2019-05-29T11:22:37.776Z,22.30
2019-05-29T11:25:22.083Z,22.40
2019-05-29T11:27:38.101Z,22.30
2019-05-29T11:30:07.457Z,22.20
2019-05-29T11:32:36.870Z,22.10
2019-05-29T11:35:06.148Z,22.00
2019-05-29T11:37:35.387Z,22.00
2019-05-29T11:40:05.075Z,21.90
2019-05-29T11:42:34.051Z,22.00
2019-05-29T11:45:03.825Z,22.20
2019-05-29T11:47:33.332Z,22.30
2019-05-29T11:50:16.430Z,22.40
2019-05-29T11:52:42.342Z,22.40
2019-05-29T11:55:07.919Z,22.50
2019-05-29T11:57:35.446Z,22.60
2019-05-29T12:00:14.914Z,22.70
2019-05-29T12:02:37.227Z,22.80
2019-05-29T12:05:07.286Z,22.90
2019-05-29T12:07:36.188Z,22.90
2019-05-29T12:10:06.267Z,22.90
2019-05-29T12:12:35.633Z,22.90
2019-05-29T12:15:13.271Z,22.80
2019-05-29T12:17:38.328Z,22.60
2019-05-29T12:20:26.540Z,22.60
2019-05-29T12:22:38.800Z,22.20
2019-05-29T12:25:08.101Z,22.20
2019-05-29T12:27:37.402Z,22.40
2019-05-29T12:30:06.911Z,22.50
2019-05-29T12:32:35.931Z,22.70
2019-05-29T12:35:05.911Z,23.00
2019-05-29T12:37:34.843Z,23.20
2019-05-29T12:40:04.654Z,23.30
2019-05-29T12:42:33.619Z,23.20
2019-05-29T12:45:04.149Z,23.10
2019-05-29T12:47:33.294Z,23.00
2019-05-29T12:50:02.642Z,22.50
2019-05-29T12:52:32.891Z,22.50
2019-05-29T12:55:02.426Z,22.50
2019-05-29T12:57:31.551Z,22.80
2019-05-29T13:00:00.501Z,23.10
2019-05-29T13:02:29.503Z,23.30
2019-05-29T13:05:13.089Z,23.50
2019-05-29T13:07:29.168Z,23.40
2019-05-29T13:09:58.919Z,23.20
2019-05-29T13:12:27.927Z,23.20
2019-05-29T13:14:56.931Z,23.10
2019-05-29T13:17:25.934Z,23.30
2019-05-29T13:19:59.390Z,23.50
2019-05-29T13:22:25.501Z,23.70
2019-05-29T13:24:55.157Z,23.80
2019-05-29T13:27:24.105Z,23.90
2019-05-29T13:29:56.497Z,23.90
2019-05-29T13:32:23.709Z,23.90
2019-05-29T13:34:52.976Z,23.80
2019-05-29T13:37:21.928Z,23.40
2019-05-29T13:39:51.187Z,23.50
2019-05-29T13:42:20.164Z,23.40
2019-05-29T13:44:49.114Z,23.40
2019-05-29T13:47:18.066Z,23.40
2019-05-29T13:49:47.515Z,23.50
2019-05-29T13:52:16.788Z,23.70
2019-05-29T13:54:45.655Z,23.80
2019-05-29T13:57:14.954Z,23.90
2019-05-29T13:59:43.886Z,24.00
2019-05-29T14:02:12.838Z,23.90
2019-05-29T14:04:41.776Z,23.70
2019-05-29T14:07:10.978Z,23.70
2019-05-29T14:09:39.902Z,23.40
2019-05-29T14:12:09.500Z,23.30
2019-05-29T14:14:38.854Z,23.40
2019-05-29T14:17:08.808Z,23.30
2019-05-29T14:19:37.950Z,23.40
2019-05-29T14:22:07.139Z,23.60
2019-05-29T14:24:35.983Z,23.50
2019-05-29T14:27:05.493Z,23.50
2019-05-29T14:29:34.465Z,23.00
2019-05-29T14:32:03.449Z,22.70
2019-05-29T14:34:32.400Z,22.90
2019-05-29T14:37:03.223Z,23.20
2019-05-29T14:39:31.940Z,23.40
2019-05-29T14:42:01.732Z,23.60
2019-05-29T14:44:31.181Z,23.60
2019-05-29T14:47:00.122Z,23.60
2019-05-29T14:49:28.947Z,23.70
2019-05-29T14:51:57.862Z,23.80
2019-05-29T14:54:40.522Z,23.90
2019-05-29T14:56:57.512Z,24.00
2019-05-29T14:59:26.617Z,24.10
2019-05-29T15:01:55.523Z,24.00
2019-05-29T15:04:24.452Z,23.60
2019-05-29T15:06:53.504Z,23.30
2019-05-29T15:09:22.468Z,23.30
2019-05-29T15:11:51.636Z,23.50
2019-05-29T15:14:20.853Z,23.60
2019-05-29T15:16:49.777Z,23.50
2019-05-29T15:19:19.557Z,23.60
2019-05-29T15:21:48.530Z,23.60
2019-05-29T15:24:17.423Z,23.50
2019-05-29T15:26:46.429Z,23.30
2019-05-29T15:29:17.894Z,23.20
2019-05-29T15:31:46.041Z,22.90
2019-05-29T15:34:14.993Z,23.00
2019-05-29T15:36:44.304Z,23.00
2019-05-29T15:39:13.241Z,22.90
2019-05-29T15:41:42.161Z,23.00
2019-05-29T15:44:11.085Z,22.80
2019-05-29T15:46:40.025Z,22.80
2019-05-29T15:49:10.978Z,23.10
2019-05-29T15:51:40.137Z,23.10
2019-05-29T15:54:09.227Z,22.90
2019-05-29T15:56:38.222Z,23.00
2019-05-29T15:59:07.856Z,23.10
2019-05-29T16:01:38.146Z,23.20
2019-05-29T16:04:07.648Z,23.20
2019-05-29T16:06:36.544Z,23.30
2019-05-29T16:09:08.161Z,23.50
2019-05-29T16:11:37.294Z,23.50
2019-05-29T16:14:06.378Z,23.50
2019-05-29T16:16:35.200Z,23.60
2019-05-29T16:19:04.790Z,23.70
2019-05-29T16:21:33.805Z,23.80
2019-05-29T16:24:02.678Z,23.80
2019-05-29T16:26:31.542Z,23.80
2019-05-29T16:29:00.431Z,23.80
2019-05-29T16:31:29.378Z,23.80
2019-05-29T16:34:01.273Z,23.60
2019-05-29T16:36:30.358Z,23.40
2019-05-29T16:38:59.298Z,23.30
2019-05-29T16:41:28.257Z,23.00
2019-05-29T16:43:57.465Z,22.90
2019-05-29T16:46:27.077Z,23.10
2019-05-29T16:48:55.949Z,23.20
2019-05-29T16:51:24.929Z,23.30
2019-05-29T16:53:53.811Z,23.40
2019-05-29T16:56:23.366Z,23.50
2019-05-29T16:58:52.768Z,23.60
2019-05-29T17:01:21.848Z,23.60
2019-05-29T17:03:50.896Z,23.50
2019-05-29T17:06:20.206Z,23.50
2019-05-29T17:08:49.226Z,23.40
2019-05-29T17:11:18.597Z,23.40
2019-05-29T17:13:48.203Z,23.40
2019-05-29T17:16:18.221Z,23.40
2019-05-29T17:18:49.113Z,23.40
2019-05-29T17:21:18.683Z,23.30
2019-05-29T17:23:47.749Z,23.30
2019-05-29T17:26:16.756Z,23.30
2019-05-29T17:28:46.399Z,23.30
2019-05-29T17:31:16.790Z,23.30
2019-05-29T17:33:45.952Z,23.30
2019-05-29T17:36:15.071Z,23.30
2019-05-29T17:38:44.002Z,23.30
2019-05-29T17:41:13.030Z,23.30
2019-05-29T17:43:41.931Z,23.20
2019-05-29T17:46:10.888Z,23.10
2019-05-29T17:48:39.879Z,23.00
2019-05-29T17:51:08.848Z,23.00
2019-05-29T17:53:37.860Z,22.90
2019-05-29T17:56:06.839Z,22.90
2019-05-29T17:58:39.088Z,22.80
2019-05-29T18:01:11.724Z,22.70
2019-05-29T18:03:41.168Z,22.70
2019-05-29T18:06:13.221Z,22.70
2019-05-29T18:08:42.436Z,22.70
2019-05-29T18:11:11.807Z,22.60
2019-05-29T18:13:41.168Z,22.50
2019-05-29T18:16:10.077Z,22.50
2019-05-29T18:18:42.722Z,22.40
2019-05-29T18:21:11.584Z,22.50
2019-05-29T18:23:40.598Z,21.10
2019-05-29T18:26:11.210Z,22.30
2019-05-29T18:28:43.696Z,22.30
2019-05-29T18:31:12.734Z,22.20
2019-05-29T18:33:42.206Z,22.20
2019-05-29T18:36:11.440Z,22.10
2019-05-29T18:38:40.904Z,21.30
2019-05-29T18:41:12.681Z,22.00
2019-05-29T18:43:43.186Z,22.00
2019-05-29T18:46:18.507Z,21.90
2019-05-29T18:48:51.138Z,21.80
2019-05-29T18:51:20.970Z,21.70
2019-05-29T18:53:50.521Z,21.60
2019-05-29T18:56:19.935Z,21.50
2019-05-29T18:58:49.275Z,21.40
2019-05-29T19:01:18.503Z,21.40
2019-05-29T19:03:47.530Z,21.30
2019-05-29T19:06:16.869Z,21.20
2019-05-29T19:08:45.859Z,21.10
2019-05-29T19:11:15.259Z,21.10
2019-05-29T19:13:44.264Z,21.00
2019-05-29T19:16:13.307Z,20.90
2019-05-29T19:18:42.505Z,20.90
2019-05-29T19:21:11.909Z,20.90
2019-05-29T19:23:42.137Z,20.90
2019-05-29T19:26:11.804Z,20.80
2019-05-29T19:28:41.159Z,20.80
2019-05-29T19:31:10.498Z,20.80
2019-05-29T19:33:41.340Z,20.90
2019-05-29T19:36:11.127Z,20.90
2019-05-29T19:38:40.670Z,20.80
2019-05-29T19:41:10.395Z,20.90
2019-05-29T19:43:40.134Z,20.90
2019-05-29T19:46:09.494Z,20.90
2019-05-29T19:48:38.618Z,20.80
2019-05-29T19:51:07.690Z,20.80
2019-05-29T19:53:36.915Z,20.80
2019-05-29T19:56:05.924Z,20.80
2019-05-29T19:58:36.117Z,20.80
2019-05-29T20:01:05.618Z,20.70
2019-05-29T20:03:36.724Z,20.70
2019-05-29T20:06:06.224Z,20.70
2019-05-29T20:08:37.566Z,20.60
2019-05-29T20:11:07.425Z,20.60
2019-05-29T20:13:36.401Z,20.60
2019-05-29T20:16:05.470Z,20.60
2019-05-29T20:18:34.610Z,20.60
2019-05-29T20:21:03.601Z,20.60
2019-05-29T20:23:32.902Z,20.60
2019-05-29T20:26:02.144Z,20.50
2019-05-29T20:28:32.075Z,20.60
2019-05-29T20:31:01.180Z,20.50
2019-05-29T20:33:30.415Z,20.50
2019-05-29T20:35:59.472Z,20.60
2019-05-29T20:38:28.476Z,20.60
2019-05-29T20:40:57.777Z,20.60
2019-05-29T20:45:55.692Z,20.60
2019-05-29T20:48:24.701Z,20.60
2019-05-29T20:50:54.651Z,20.50
2019-05-29T20:53:28.413Z,20.60
2019-05-29T20:55:57.686Z,20.50
2019-05-29T20:58:26.834Z,20.50
2019-05-29T21:00:56.934Z,20.50
2019-05-29T21:03:26.052Z,20.40
2019-05-29T21:05:54.973Z,20.40
2019-05-29T21:08:25.244Z,20.40
2019-05-29T21:10:54.360Z,20.30
2019-05-29T21:13:23.917Z,20.30
2019-05-29T21:15:52.856Z,20.30
2019-05-29T21:18:22.047Z,20.30
2019-05-29T21:20:51.024Z,20.30
2019-05-29T21:23:20.403Z,20.20
2019-05-29T21:25:49.732Z,20.20
2019-05-29T21:28:18.679Z,20.10
2019-05-29T21:30:47.760Z,20.00
2019-05-29T21:33:16.680Z,20.00
2019-05-29T21:35:46.392Z,19.90
2019-05-29T21:38:15.459Z,19.90
2019-05-29T21:40:44.599Z,19.80
2019-05-29T21:43:13.665Z,19.80
2019-05-29T21:45:43.160Z,19.80
2019-05-29T21:48:12.397Z,19.70
2019-05-29T21:50:41.445Z,19.60
2019-05-29T21:53:10.394Z,19.60
2019-05-29T21:55:39.550Z,19.50
2019-05-29T21:58:08.782Z,19.50
2019-05-29T22:00:42.254Z,19.40
2019-05-29T22:03:11.382Z,19.40
2019-05-29T22:05:40.595Z,19.30
2019-05-29T22:08:09.624Z,19.30
2019-05-29T22:10:38.649Z,19.30
2019-05-29T22:13:07.723Z,19.20
2019-05-29T22:15:36.927Z,19.20
2019-05-29T22:18:05.921Z,19.20
2019-05-29T22:20:35.056Z,19.10
2019-05-29T22:23:04.014Z,19.10
2019-05-29T22:25:34.604Z,19.00
2019-05-29T22:28:03.709Z,19.00
2019-05-29T22:30:32.944Z,19.00
2019-05-29T22:33:02.006Z,18.90
2019-05-29T22:35:31.154Z,18.90
2019-05-29T22:38:00.200Z,18.80
2019-05-29T22:40:29.289Z,18.80
2019-05-29T22:42:59.780Z,18.80
2019-05-29T22:45:28.887Z,18.70
2019-05-29T22:47:57.885Z,18.70
2019-05-29T22:50:26.987Z,18.70
2019-05-29T22:52:56.272Z,18.70
2019-05-29T22:55:25.222Z,18.70
2019-05-29T22:57:54.100Z,18.60
2019-05-29T23:00:23.518Z,18.60
2019-05-29T23:02:54.279Z,18.50
2019-05-29T23:05:23.242Z,18.50
2019-05-29T23:07:52.414Z,18.40
2019-05-29T23:10:21.457Z,18.40
2019-05-29T23:12:50.473Z,18.40
2019-05-29T23:15:19.504Z,18.30
2019-05-29T23:17:48.484Z,18.30
2019-05-29T23:20:17.649Z,18.20
2019-05-29T23:22:46.687Z,18.20
2019-05-29T23:25:15.822Z,18.10
2019-05-29T23:27:44.829Z,18.10
2019-05-29T23:30:14.143Z,18.10
2019-05-29T23:32:43.274Z,18.00
2019-05-29T23:35:12.323Z,18.00
2019-05-29T23:37:41.369Z,18.00
2019-05-29T23:40:12.106Z,17.90
2019-05-29T23:42:40.987Z,17.90
2019-05-29T23:45:10.178Z,17.90
2019-05-29T23:47:39.658Z,17.80
2019-05-29T23:50:10.248Z,17.80
2019-05-29T23:52:39.368Z,17.80
2019-05-29T23:55:08.887Z,17.80
2019-05-29T23:57:37.887Z,17.70
